sensor_id;sensor_type;location;lat;lon;timestamp;pressure;altitude;pressure_sealevel;temperature;humidity
13581;BME280;6861;46.170;7.222;2022-12-07T00:00:45;95972.97;;;5.03;49.92
13581;BME280;6861;46.170;7.222;2022-12-07T00:03:12;95965.97;;;5.03;49.68
13581;BME280;6861;46.170;7.222;2022-12-07T00:05:38;95975.22;;;4.99;49.72
13581;BME280;6861;46.170;7.222;2022-12-07T00:08:07;95970.03;;;4.99;49.86
13581;BME280;6861;46.170;7.222;2022-12-07T00:10:34;95965.19;;;5.03;49.86
13581;BME280;6861;46.170;7.222;2022-12-07T00:13:00;95964.50;;;5.07;49.57
13581;BME280;6861;46.170;7.222;2022-12-07T00:15:27;95962.91;;;5.06;49.58
13581;BME280;6861;46.170;7.222;2022-12-07T00:17:54;95964.41;;;5.02;49.71
13581;BME280;6861;46.170;7.222;2022-12-07T00:20:21;95966.44;;;5.00;49.65
13581;BME280;6861;46.170;7.222;2022-12-07T00:22:48;95962.59;;;5.03;49.81
13581;BME280;6861;46.170;7.222;2022-12-07T00:25:16;95956.72;;;5.07;49.52
13581;BME280;6861;46.170;7.222;2022-12-07T00:27:43;95961.44;;;5.10;49.31
13581;BME280;6861;46.170;7.222;2022-12-07T00:30:10;95963.84;;;5.00;49.96
13581;BME280;6861;46.170;7.222;2022-12-07T00:32:37;95960.59;;;4.93;49.44
13581;BME280;6861;46.170;7.222;2022-12-07T00:35:04;95960.69;;;4.86;49.71
13581;BME280;6861;46.170;7.222;2022-12-07T00:37:31;95957.22;;;4.81;49.78
13581;BME280;6861;46.170;7.222;2022-12-07T00:39:58;95958.91;;;4.75;50.06
13581;BME280;6861;46.170;7.222;2022-12-07T00:42:26;95956.22;;;4.70;50.19
13581;BME280;6861;46.170;7.222;2022-12-07T00:44:53;95952.59;;;4.71;50.25
13581;BME280;6861;46.170;7.222;2022-12-07T00:47:20;95955.31;;;4.76;49.97
13581;BME280;6861;46.170;7.222;2022-12-07T00:49:47;95954.06;;;4.79;49.97
13581;BME280;6861;46.170;7.222;2022-12-07T00:52:14;95962.84;;;4.78;50.11
13581;BME280;6861;46.170;7.222;2022-12-07T00:54:40;95962.06;;;4.77;50.19
13581;BME280;6861;46.170;7.222;2022-12-07T00:57:07;95951.25;;;4.80;50.21
13581;BME280;6861;46.170;7.222;2022-12-07T00:59:36;95943.81;;;4.72;50.32
13581;BME280;6861;46.170;7.222;2022-12-07T01:02:02;95957.13;;;4.76;50.24
13581;BME280;6861;46.170;7.222;2022-12-07T01:04:29;95956.00;;;4.72;50.10
13581;BME280;6861;46.170;7.222;2022-12-07T01:06:56;95954.63;;;4.69;50.02
13581;BME280;6861;46.170;7.222;2022-12-07T01:09:23;95964.66;;;4.66;50.20
13581;BME280;6861;46.170;7.222;2022-12-07T01:11:50;95969.28;;;4.64;50.13
13581;BME280;6861;46.170;7.222;2022-12-07T01:14:17;95961.97;;;4.60;50.38
13581;BME280;6861;46.170;7.222;2022-12-07T01:16:45;95965.00;;;4.57;50.35
13581;BME280;6861;46.170;7.222;2022-12-07T01:19:12;95969.63;;;4.55;50.40
13581;BME280;6861;46.170;7.222;2022-12-07T01:21:39;95971.66;;;4.53;50.37
13581;BME280;6861;46.170;7.222;2022-12-07T01:24:07;95976.28;;;4.51;50.61
13581;BME280;6861;46.170;7.222;2022-12-07T01:26:36;95978.88;;;4.51;50.57
13581;BME280;6861;46.170;7.222;2022-12-07T01:29:03;95981.00;;;4.54;50.49
13581;BME280;6861;46.170;7.222;2022-12-07T01:31:30;95983.59;;;4.54;50.43
13581;BME280;6861;46.170;7.222;2022-12-07T01:33:59;95981.25;;;4.53;50.51
13581;BME280;6861;46.170;7.222;2022-12-07T01:36:27;95992.63;;;4.52;50.40
13581;BME280;6861;46.170;7.222;2022-12-07T01:38:56;95979.31;;;4.48;50.31
13581;BME280;6861;46.170;7.222;2022-12-07T01:41:25;95980.91;;;4.49;50.35
13581;BME280;6861;46.170;7.222;2022-12-07T01:44:12;95976.84;;;4.53;50.34
13581;BME280;6861;46.170;7.222;2022-12-07T01:46:39;95971.09;;;4.51;50.17
13581;BME280;6861;46.170;7.222;2022-12-07T01:49:10;95980.22;;;4.42;50.29
13581;BME280;6861;46.170;7.222;2022-12-07T01:51:42;95971.78;;;4.35;50.51
13581;BME280;6861;46.170;7.222;2022-12-07T01:54:11;95970.44;;;4.33;50.44
13581;BME280;6861;46.170;7.222;2022-12-07T01:56:42;95963.34;;;4.28;50.71
13581;BME280;6861;46.170;7.222;2022-12-07T01:59:10;95966.50;;;4.30;50.26
13581;BME280;6861;46.170;7.222;2022-12-07T02:01:37;95964.94;;;4.29;50.65
13581;BME280;6861;46.170;7.222;2022-12-07T02:04:05;95962.56;;;4.27;50.67
13581;BME280;6861;46.170;7.222;2022-12-07T02:06:35;95967.41;;;4.24;50.87
13581;BME280;6861;46.170;7.222;2022-12-07T02:09:03;95973.13;;;4.14;50.87
13581;BME280;6861;46.170;7.222;2022-12-07T02:11:30;95971.66;;;4.07;51.38
13581;BME280;6861;46.170;7.222;2022-12-07T02:13:57;95975.34;;;3.99;51.26
13581;BME280;6861;46.170;7.222;2022-12-07T02:16:31;95972.06;;;3.80;51.39
13581;BME280;6861;46.170;7.222;2022-12-07T02:19:18;95966.59;;;3.58;52.19
13581;BME280;6861;46.170;7.222;2022-12-07T02:21:54;95983.09;;;3.46;52.38
13581;BME280;6861;46.170;7.222;2022-12-07T02:24:34;95977.97;;;3.27;52.71
13581;BME280;6861;46.170;7.222;2022-12-07T02:30:03;95985.59;;;2.86;53.34
13581;BME280;6861;46.170;7.222;2022-12-07T02:32:41;95984.88;;;2.79;54.15
13581;BME280;6861;46.170;7.222;2022-12-07T02:35:12;95981.72;;;2.77;53.46
13581;BME280;6861;46.170;7.222;2022-12-07T02:37:45;95981.34;;;2.73;53.58
13581;BME280;6861;46.170;7.222;2022-12-07T02:40:21;95980.56;;;2.73;53.92
13581;BME280;6861;46.170;7.222;2022-12-07T02:42:52;95988.75;;;2.70;53.23
13581;BME280;6861;46.170;7.222;2022-12-07T02:45:25;95981.13;;;2.75;53.95
13581;BME280;6861;46.170;7.222;2022-12-07T02:47:56;95979.72;;;2.79;53.52
13581;BME280;6861;46.170;7.222;2022-12-07T02:50:26;95971.38;;;2.77;53.40
13581;BME280;6861;46.170;7.222;2022-12-07T02:52:53;95982.44;;;2.84;53.57
13581;BME280;6861;46.170;7.222;2022-12-07T02:55:23;95990.75;;;2.86;53.01
13581;BME280;6861;46.170;7.222;2022-12-07T02:58:06;95992.28;;;2.93;53.99
13581;BME280;6861;46.170;7.222;2022-12-07T03:00:44;95987.59;;;3.02;53.67
13581;BME280;6861;46.170;7.222;2022-12-07T03:03:14;95987.31;;;3.10;53.41
13581;BME280;6861;46.170;7.222;2022-12-07T03:05:52;95980.84;;;3.19;52.67
13581;BME280;6861;46.170;7.222;2022-12-07T03:08:26;95984.50;;;3.30;53.16
13581;BME280;6861;46.170;7.222;2022-12-07T03:10:58;95984.19;;;3.38;52.47
13581;BME280;6861;46.170;7.222;2022-12-07T03:13:30;95978.94;;;3.45;52.63
13581;BME280;6861;46.170;7.222;2022-12-07T03:16:02;95973.44;;;3.53;52.70
13581;BME280;6861;46.170;7.222;2022-12-07T03:18:34;95974.91;;;3.60;52.72
13581;BME280;6861;46.170;7.222;2022-12-07T03:21:06;95974.25;;;3.65;52.70
13581;BME280;6861;46.170;7.222;2022-12-07T03:23:39;95975.97;;;3.71;52.06
13581;BME280;6861;46.170;7.222;2022-12-07T03:26:09;95978.09;;;3.74;52.35
13581;BME280;6861;46.170;7.222;2022-12-07T03:28:42;95968.56;;;3.75;52.37
13581;BME280;6861;46.170;7.222;2022-12-07T03:31:15;95968.19;;;3.71;52.35
13581;BME280;6861;46.170;7.222;2022-12-07T03:33:48;95975.03;;;3.66;52.59
13581;BME280;6861;46.170;7.222;2022-12-07T03:36:21;95971.97;;;3.57;52.73
13581;BME280;6861;46.170;7.222;2022-12-07T03:38:53;95963.53;;;3.50;52.82
13581;BME280;6861;46.170;7.222;2022-12-07T03:41:24;95970.16;;;3.46;52.34
13581;BME280;6861;46.170;7.222;2022-12-07T03:43:54;95964.22;;;3.45;52.22
13581;BME280;6861;46.170;7.222;2022-12-07T03:46:28;95962.16;;;3.47;53.24
13581;BME280;6861;46.170;7.222;2022-12-07T03:49:06;95967.13;;;3.49;52.44
13581;BME280;6861;46.170;7.222;2022-12-07T03:51:39;95965.78;;;3.46;52.63
13581;BME280;6861;46.170;7.222;2022-12-07T03:54:11;95973.06;;;3.38;53.33
13581;BME280;6861;46.170;7.222;2022-12-07T03:56:41;95973.22;;;3.24;53.26
13581;BME280;6861;46.170;7.222;2022-12-07T03:59:10;95969.78;;;3.12;53.16
13581;BME280;6861;46.170;7.222;2022-12-07T04:01:41;95963.47;;;3.08;53.34
13581;BME280;6861;46.170;7.222;2022-12-07T04:04:08;95972.22;;;3.07;53.90
13581;BME280;6861;46.170;7.222;2022-12-07T04:06:35;95969.00;;;3.12;53.89
13581;BME280;6861;46.170;7.222;2022-12-07T04:09:02;95963.47;;;3.08;53.40
13581;BME280;6861;46.170;7.222;2022-12-07T04:11:29;95967.34;;;3.17;53.75
13581;BME280;6861;46.170;7.222;2022-12-07T04:13:56;95971.22;;;3.26;52.88
13581;BME280;6861;46.170;7.222;2022-12-07T04:16:42;95967.09;;;3.37;53.12
13581;BME280;6861;46.170;7.222;2022-12-07T04:19:09;95971.41;;;3.43;53.18
13581;BME280;6861;46.170;7.222;2022-12-07T04:21:35;95975.34;;;3.46;52.98
13581;BME280;6861;46.170;7.222;2022-12-07T04:24:03;95976.88;;;3.47;53.07
13581;BME280;6861;46.170;7.222;2022-12-07T04:26:30;95978.47;;;3.48;52.80
13581;BME280;6861;46.170;7.222;2022-12-07T04:28:57;95977.94;;;3.46;52.40
13581;BME280;6861;46.170;7.222;2022-12-07T04:31:24;95975.00;;;3.42;52.66
13581;BME280;6861;46.170;7.222;2022-12-07T04:33:52;95973.63;;;3.40;52.75
13581;BME280;6861;46.170;7.222;2022-12-07T04:36:19;95975.06;;;3.36;52.74
13581;BME280;6861;46.170;7.222;2022-12-07T04:38:46;95977.97;;;3.27;52.90
13581;BME280;6861;46.170;7.222;2022-12-07T04:41:13;95966.19;;;3.13;53.46
13581;BME280;6861;46.170;7.222;2022-12-07T04:43:40;95976.63;;;3.07;53.65
13581;BME280;6861;46.170;7.222;2022-12-07T04:46:07;95975.81;;;3.06;53.76
13581;BME280;6861;46.170;7.222;2022-12-07T04:48:34;95981.13;;;3.11;53.08
13581;BME280;6861;46.170;7.222;2022-12-07T04:51:04;95987.03;;;3.18;54.03
13581;BME280;6861;46.170;7.222;2022-12-07T04:53:30;95982.06;;;3.17;53.05
13581;BME280;6861;46.170;7.222;2022-12-07T04:55:57;95993.28;;;3.11;53.72
13581;BME280;6861;46.170;7.222;2022-12-07T04:58:26;95980.78;;;3.08;53.90
13581;BME280;6861;46.170;7.222;2022-12-07T05:00:54;95986.31;;;3.11;53.88
13581;BME280;6861;46.170;7.222;2022-12-07T05:03:21;95972.16;;;3.14;53.76
13581;BME280;6861;46.170;7.222;2022-12-07T05:05:48;95975.69;;;3.19;53.12
13581;BME280;6861;46.170;7.222;2022-12-07T05:08:17;95980.84;;;3.19;53.81
13581;BME280;6861;46.170;7.222;2022-12-07T05:10:43;95979.63;;;3.22;53.54
13581;BME280;6861;46.170;7.222;2022-12-07T05:13:10;95981.19;;;3.23;53.25
13581;BME280;6861;46.170;7.222;2022-12-07T05:15:37;95983.44;;;3.19;53.28
13581;BME280;6861;46.170;7.222;2022-12-07T05:18:04;95977.34;;;3.14;53.23
13581;BME280;6861;46.170;7.222;2022-12-07T05:20:31;95977.41;;;3.07;53.71
13581;BME280;6861;46.170;7.222;2022-12-07T05:22:58;95974.97;;;2.94;53.34
13581;BME280;6861;46.170;7.222;2022-12-07T05:25:26;95970.09;;;2.86;53.57
13581;BME280;6861;46.170;7.222;2022-12-07T05:27:54;95976.41;;;2.72;53.62
13581;BME280;6861;46.170;7.222;2022-12-07T05:30:21;95967.56;;;2.61;54.25
13581;BME280;6861;46.170;7.222;2022-12-07T05:32:48;95962.50;;;2.54;54.87
13581;BME280;6861;46.170;7.222;2022-12-07T05:35:15;95960.06;;;2.59;54.61
13581;BME280;6861;46.170;7.222;2022-12-07T05:37:42;95952.06;;;2.61;54.54
13581;BME280;6861;46.170;7.222;2022-12-07T05:40:10;95950.84;;;2.63;54.23
13581;BME280;6861;46.170;7.222;2022-12-07T05:42:39;95959.28;;;2.59;54.62
13581;BME280;6861;46.170;7.222;2022-12-07T05:45:06;95966.50;;;2.50;54.82
13581;BME280;6861;46.170;7.222;2022-12-07T05:47:33;95968.94;;;2.45;54.44
13581;BME280;6861;46.170;7.222;2022-12-07T05:50:00;95972.94;;;2.41;54.82
13581;BME280;6861;46.170;7.222;2022-12-07T05:52:27;95969.78;;;2.39;54.08
13581;BME280;6861;46.170;7.222;2022-12-07T05:54:54;95964.78;;;2.44;54.12
13581;BME280;6861;46.170;7.222;2022-12-07T05:57:21;95960.63;;;2.43;54.20
13581;BME280;6861;46.170;7.222;2022-12-07T05:59:49;95962.69;;;2.35;54.35
13581;BME280;6861;46.170;7.222;2022-12-07T06:02:16;95958.72;;;2.32;55.21
13581;BME280;6861;46.170;7.222;2022-12-07T06:04:44;95964.47;;;2.34;54.57
13581;BME280;6861;46.170;7.222;2022-12-07T06:07:13;95962.25;;;2.38;54.84
13581;BME280;6861;46.170;7.222;2022-12-07T06:09:40;95958.41;;;2.47;54.81
13581;BME280;6861;46.170;7.222;2022-12-07T06:12:09;95962.41;;;2.61;54.74
13581;BME280;6861;46.170;7.222;2022-12-07T06:14:55;95950.41;;;2.67;54.48
13581;BME280;6861;46.170;7.222;2022-12-07T06:17:22;95953.38;;;2.70;54.48
13581;BME280;6861;46.170;7.222;2022-12-07T06:19:49;95954.81;;;2.66;53.62
13581;BME280;6861;46.170;7.222;2022-12-07T06:22:16;95952.44;;;2.64;54.35
13581;BME280;6861;46.170;7.222;2022-12-07T06:24:43;95951.53;;;2.59;54.73
13581;BME280;6861;46.170;7.222;2022-12-07T06:27:10;95955.75;;;2.53;53.82
13581;BME280;6861;46.170;7.222;2022-12-07T06:29:37;95952.00;;;2.49;54.47
13581;BME280;6861;46.170;7.222;2022-12-07T06:32:06;95953.09;;;2.42;54.99
13581;BME280;6861;46.170;7.222;2022-12-07T06:34:33;95944.41;;;2.36;54.51
13581;BME280;6861;46.170;7.222;2022-12-07T06:37:00;95953.44;;;2.45;54.80
13581;BME280;6861;46.170;7.222;2022-12-07T06:39:28;95955.19;;;2.51;54.24
13581;BME280;6861;46.170;7.222;2022-12-07T06:41:55;95946.09;;;2.60;54.98
13581;BME280;6861;46.170;7.222;2022-12-07T06:44:23;95948.41;;;2.69;54.12
13581;BME280;6861;46.170;7.222;2022-12-07T06:46:51;95951.34;;;2.72;53.75
13581;BME280;6861;46.170;7.222;2022-12-07T06:49:19;95958.31;;;2.72;54.41
13581;BME280;6861;46.170;7.222;2022-12-07T06:51:46;95947.97;;;2.72;54.65
13581;BME280;6861;46.170;7.222;2022-12-07T06:54:14;95961.47;;;2.74;53.68
13581;BME280;6861;46.170;7.222;2022-12-07T06:56:41;95955.44;;;2.80;54.38
13581;BME280;6861;46.170;7.222;2022-12-07T06:59:08;95947.84;;;2.85;53.95
13581;BME280;6861;46.170;7.222;2022-12-07T07:01:36;95955.72;;;2.90;54.04
13581;BME280;6861;46.170;7.222;2022-12-07T07:04:03;95945.97;;;2.92;53.39
13581;BME280;6861;46.170;7.222;2022-12-07T07:06:31;95948.34;;;2.93;53.58
13581;BME280;6861;46.170;7.222;2022-12-07T07:08:58;95952.28;;;2.96;54.02
13581;BME280;6861;46.170;7.222;2022-12-07T07:11:25;95955.09;;;2.94;53.93
13581;BME280;6861;46.170;7.222;2022-12-07T07:13:52;95957.88;;;2.93;53.76
13581;BME280;6861;46.170;7.222;2022-12-07T07:16:22;95957.66;;;2.94;53.19
13581;BME280;6861;46.170;7.222;2022-12-07T07:18:49;95967.56;;;2.97;53.87
13581;BME280;6861;46.170;7.222;2022-12-07T07:21:16;95965.78;;;2.98;53.76
13581;BME280;6861;46.170;7.222;2022-12-07T07:23:44;95967.56;;;2.97;53.42
13581;BME280;6861;46.170;7.222;2022-12-07T07:26:11;95971.09;;;3.03;53.10
13581;BME280;6861;46.170;7.222;2022-12-07T07:28:38;95969.50;;;3.02;53.70
13581;BME280;6861;46.170;7.222;2022-12-07T07:31:05;95987.38;;;3.04;53.88
13581;BME280;6861;46.170;7.222;2022-12-07T07:33:32;95989.75;;;3.05;53.41
13581;BME280;6861;46.170;7.222;2022-12-07T07:35:58;95981.78;;;3.07;53.52
13581;BME280;6861;46.170;7.222;2022-12-07T07:38:25;95996.06;;;3.09;53.14
13581;BME280;6861;46.170;7.222;2022-12-07T07:40:53;95996.56;;;3.18;52.85
13581;BME280;6861;46.170;7.222;2022-12-07T07:43:20;96001.09;;;3.22;52.58
13581;BME280;6861;46.170;7.222;2022-12-07T07:45:47;95996.63;;;3.29;53.10
13581;BME280;6861;46.170;7.222;2022-12-07T07:48:14;96006.09;;;3.36;52.64
13581;BME280;6861;46.170;7.222;2022-12-07T07:50:41;96003.66;;;3.41;52.28
13581;BME280;6861;46.170;7.222;2022-12-07T07:53:08;96002.44;;;3.43;52.22
13581;BME280;6861;46.170;7.222;2022-12-07T07:55:35;96007.25;;;3.40;51.96
13581;BME280;6861;46.170;7.222;2022-12-07T07:58:03;96009.47;;;3.36;52.46
13581;BME280;6861;46.170;7.222;2022-12-07T08:00:30;96012.38;;;3.28;52.42
13581;BME280;6861;46.170;7.222;2022-12-07T08:02:57;96005.47;;;3.22;52.17
13581;BME280;6861;46.170;7.222;2022-12-07T08:05:24;95996.78;;;3.16;52.29
13581;BME280;6861;46.170;7.222;2022-12-07T08:07:51;96000.38;;;3.15;53.11
13581;BME280;6861;46.170;7.222;2022-12-07T08:10:18;96007.72;;;3.18;52.28
13581;BME280;6861;46.170;7.222;2022-12-07T08:12:45;95999.94;;;3.18;52.87
13581;BME280;6861;46.170;7.222;2022-12-07T08:15:31;96005.13;;;3.18;52.97
13581;BME280;6861;46.170;7.222;2022-12-07T08:17:58;95998.00;;;3.14;52.32
13581;BME280;6861;46.170;7.222;2022-12-07T08:20:25;96008.00;;;3.10;53.26
13581;BME280;6861;46.170;7.222;2022-12-07T08:22:52;96014.03;;;3.04;52.72
13581;BME280;6861;46.170;7.222;2022-12-07T08:25:19;96008.13;;;2.97;52.71
13581;BME280;6861;46.170;7.222;2022-12-07T08:27:46;96008.00;;;2.92;53.67
13581;BME280;6861;46.170;7.222;2022-12-07T08:30:13;96002.81;;;2.92;53.94
13581;BME280;6861;46.170;7.222;2022-12-07T08:32:41;95996.44;;;2.94;53.52
13581;BME280;6861;46.170;7.222;2022-12-07T08:35:08;95997.00;;;2.96;52.81
13581;BME280;6861;46.170;7.222;2022-12-07T08:37:36;95995.78;;;2.99;53.34
13581;BME280;6861;46.170;7.222;2022-12-07T08:40:04;96000.53;;;3.02;53.36
13581;BME280;6861;46.170;7.222;2022-12-07T08:42:32;96002.09;;;3.03;52.76
13581;BME280;6861;46.170;7.222;2022-12-07T08:45:06;96007.06;;;3.05;53.12
13581;BME280;6861;46.170;7.222;2022-12-07T08:47:33;96011.59;;;3.09;52.71
13581;BME280;6861;46.170;7.222;2022-12-07T08:50:02;96004.53;;;3.16;52.65
13581;BME280;6861;46.170;7.222;2022-12-07T08:52:30;96002.88;;;3.22;53.12
13581;BME280;6861;46.170;7.222;2022-12-07T08:54:58;96000.31;;;3.22;53.13
13581;BME280;6861;46.170;7.222;2022-12-07T08:57:27;95990.75;;;3.22;52.57
13581;BME280;6861;46.170;7.222;2022-12-07T08:59:54;95993.34;;;3.22;53.01
13581;BME280;6861;46.170;7.222;2022-12-07T09:02:22;95997.28;;;3.25;52.49
13581;BME280;6861;46.170;7.222;2022-12-07T09:04:48;95987.50;;;3.27;52.85
13581;BME280;6861;46.170;7.222;2022-12-07T09:07:17;95982.00;;;3.23;53.32
13581;BME280;6861;46.170;7.222;2022-12-07T09:09:43;95986.72;;;3.26;52.78
13581;BME280;6861;46.170;7.222;2022-12-07T09:12:10;95993.47;;;3.27;52.85
13581;BME280;6861;46.170;7.222;2022-12-07T09:14:37;95991.47;;;3.29;52.85
13581;BME280;6861;46.170;7.222;2022-12-07T09:17:08;95987.66;;;3.32;52.71
13581;BME280;6861;46.170;7.222;2022-12-07T09:19:35;95985.84;;;3.33;52.75
13581;BME280;6861;46.170;7.222;2022-12-07T09:22:03;95982.25;;;3.34;53.20
13581;BME280;6861;46.170;7.222;2022-12-07T09:24:32;95977.66;;;3.36;53.27
13581;BME280;6861;46.170;7.222;2022-12-07T09:26:59;95986.56;;;3.40;52.75
13581;BME280;6861;46.170;7.222;2022-12-07T09:29:26;95984.09;;;3.45;53.13
13581;BME280;6861;46.170;7.222;2022-12-07T09:31:53;95984.09;;;3.45;53.39
13581;BME280;6861;46.170;7.222;2022-12-07T09:34:20;95983.63;;;3.48;53.05
13581;BME280;6861;46.170;7.222;2022-12-07T09:36:47;95979.25;;;3.48;52.72
13581;BME280;6861;46.170;7.222;2022-12-07T09:39:13;95976.00;;;3.53;53.32
13581;BME280;6861;46.170;7.222;2022-12-07T09:41:43;95974.00;;;3.55;53.08
13581;BME280;6861;46.170;7.222;2022-12-07T09:44:12;95977.94;;;3.57;53.25
13581;BME280;6861;46.170;7.222;2022-12-07T09:46:42;95974.69;;;3.62;52.62
13581;BME280;6861;46.170;7.222;2022-12-07T09:49:12;95985.03;;;3.62;53.05
13581;BME280;6861;46.170;7.222;2022-12-07T09:51:41;95974.69;;;3.62;52.99
13581;BME280;6861;46.170;7.222;2022-12-07T09:54:12;95974.25;;;3.65;52.98
13581;BME280;6861;46.170;7.222;2022-12-07T09:56:39;95971.81;;;3.70;52.49
13581;BME280;6861;46.170;7.222;2022-12-07T09:59:13;95978.34;;;3.73;52.80
13581;BME280;6861;46.170;7.222;2022-12-07T10:01:42;95972.94;;;3.74;52.42
13581;BME280;6861;46.170;7.222;2022-12-07T10:04:12;95968.09;;;3.78;52.24
13581;BME280;6861;46.170;7.222;2022-12-07T10:06:41;95962.50;;;3.81;52.68
13581;BME280;6861;46.170;7.222;2022-12-07T10:09:10;95955.06;;;3.84;52.44
13581;BME280;6861;46.170;7.222;2022-12-07T10:11:58;95952.03;;;3.87;51.98
13581;BME280;6861;46.170;7.222;2022-12-07T10:14:27;95946.28;;;3.85;51.79
13581;BME280;6861;46.170;7.222;2022-12-07T10:16:55;95937.97;;;3.83;52.23
13581;BME280;6861;46.170;7.222;2022-12-07T10:19:24;95932.66;;;3.78;52.48
13581;BME280;6861;46.170;7.222;2022-12-07T10:22:09;95931.53;;;3.74;52.45
13581;BME280;6861;46.170;7.222;2022-12-07T10:24:36;95920.84;;;3.71;52.45
13581;BME280;6861;46.170;7.222;2022-12-07T10:27:08;95928.03;;;3.69;52.96
13581;BME280;6861;46.170;7.222;2022-12-07T10:29:49;95930.84;;;3.67;52.76
13581;BME280;6861;46.170;7.222;2022-12-07T10:32:31;95917.13;;;3.67;52.80
13581;BME280;6861;46.170;7.222;2022-12-07T10:35:24;95909.25;;;3.73;52.59
13581;BME280;6861;46.170;7.222;2022-12-07T10:37:53;95903.19;;;3.79;52.30
13581;BME280;6861;46.170;7.222;2022-12-07T10:40:27;95905.91;;;3.84;52.38
13581;BME280;6861;46.170;7.222;2022-12-07T10:43:01;95905.22;;;3.89;52.69
13581;BME280;6861;46.170;7.222;2022-12-07T10:45:30;95897.81;;;3.92;52.32
13581;BME280;6861;46.170;7.222;2022-12-07T10:48:02;95895.78;;;3.94;52.24
13581;BME280;6861;46.170;7.222;2022-12-07T10:50:49;95894.78;;;3.95;51.95
13581;BME280;6861;46.170;7.222;2022-12-07T10:53:47;95887.00;;;3.95;51.93
13581;BME280;6861;46.170;7.222;2022-12-07T10:56:29;95890.16;;;3.98;52.50
13581;BME280;6861;46.170;7.222;2022-12-07T10:59:15;95895.09;;;3.99;52.25
13581;BME280;6861;46.170;7.222;2022-12-07T11:01:51;95884.75;;;3.99;52.06
13581;BME280;6861;46.170;7.222;2022-12-07T11:04:29;95884.09;;;4.04;52.12
13581;BME280;6861;46.170;7.222;2022-12-07T11:07:04;95879.47;;;4.06;52.17
13581;BME280;6861;46.170;7.222;2022-12-07T11:09:47;95873.84;;;4.09;52.51
13581;BME280;6861;46.170;7.222;2022-12-07T11:12:26;95868.22;;;4.12;52.23
13581;BME280;6861;46.170;7.222;2022-12-07T11:15:00;95860.78;;;4.15;52.32
13581;BME280;6861;46.170;7.222;2022-12-07T11:17:36;95850.31;;;4.22;52.18
13581;BME280;6861;46.170;7.222;2022-12-07T11:20:17;95849.72;;;4.32;52.16
13581;BME280;6861;46.170;7.222;2022-12-07T11:22:54;95861.63;;;4.44;52.50
13581;BME280;6861;46.170;7.222;2022-12-07T11:25:31;95847.97;;;4.60;52.87
13581;BME280;6861;46.170;7.222;2022-12-07T11:28:10;95854.22;;;4.76;52.58
13581;BME280;6861;46.170;7.222;2022-12-07T11:30:46;95854.28;;;4.93;52.62
13581;BME280;6861;46.170;7.222;2022-12-07T11:33:25;95848.34;;;5.09;52.54
13581;BME280;6861;46.170;7.222;2022-12-07T11:36:02;95844.75;;;5.27;52.72
13581;BME280;6861;46.170;7.222;2022-12-07T11:38:41;95837.22;;;5.42;52.87
13581;BME280;6861;46.170;7.222;2022-12-07T11:41:09;95831.50;;;5.57;52.31
13581;BME280;6861;46.170;7.222;2022-12-07T11:43:50;95831.19;;;5.70;52.25
13581;BME280;6861;46.170;7.222;2022-12-07T11:46:20;95832.91;;;5.81;52.55
13581;BME280;6861;46.170;7.222;2022-12-07T11:48:56;95824.75;;;5.89;52.01
13581;BME280;6861;46.170;7.222;2022-12-07T11:51:25;95825.91;;;5.99;51.75
13581;BME280;6861;46.170;7.222;2022-12-07T11:53:55;95813.78;;;6.04;51.82
13581;BME280;6861;46.170;7.222;2022-12-07T11:56:26;95810.97;;;6.11;52.39
13581;BME280;6861;46.170;7.222;2022-12-07T11:58:56;95800.91;;;6.14;52.33
13581;BME280;6861;46.170;7.222;2022-12-07T12:01:31;95794.44;;;6.17;51.75
13581;BME280;6861;46.170;7.222;2022-12-07T12:04:12;95796.56;;;6.20;52.11
13581;BME280;6861;46.170;7.222;2022-12-07T12:06:41;95794.50;;;6.22;50.90
13581;BME280;6861;46.170;7.222;2022-12-07T12:09:12;95788.28;;;6.23;51.37
13581;BME280;6861;46.170;7.222;2022-12-07T12:11:59;95789.84;;;6.24;50.99
13581;BME280;6861;46.170;7.222;2022-12-07T12:14:40;95786.22;;;6.25;51.55
13581;BME280;6861;46.170;7.222;2022-12-07T12:17:27;95776.31;;;6.22;50.84
13581;BME280;6861;46.170;7.222;2022-12-07T12:20:04;95775.53;;;6.21;51.27
13581;BME280;6861;46.170;7.222;2022-12-07T12:22:36;95765.13;;;6.21;51.83
13581;BME280;6861;46.170;7.222;2022-12-07T12:25:05;95764.66;;;6.24;51.99
13581;BME280;6861;46.170;7.222;2022-12-07T12:27:35;95761.34;;;6.29;51.35
13581;BME280;6861;46.170;7.222;2022-12-07T12:30:06;95753.31;;;6.31;50.61
13581;BME280;6861;46.170;7.222;2022-12-07T12:32:38;95765.56;;;6.35;50.67
13581;BME280;6861;46.170;7.222;2022-12-07T12:35:28;95755.47;;;6.39;50.57
13581;BME280;6861;46.170;7.222;2022-12-07T12:38:26;95750.56;;;6.42;51.55
13581;BME280;6861;46.170;7.222;2022-12-07T12:40:54;95743.06;;;6.46;51.08
13581;BME280;6861;46.170;7.222;2022-12-07T12:43:43;95747.53;;;6.50;50.32
13581;BME280;6861;46.170;7.222;2022-12-07T12:49:36;95738.22;;;6.54;50.14
13581;BME280;6861;46.170;7.222;2022-12-07T12:55:19;95734.66;;;6.61;51.48
13581;BME280;6861;46.170;7.222;2022-12-07T13:03:55;95727.75;;;6.71;50.62
13581;BME280;6861;46.170;7.222;2022-12-07T13:06:34;95733.25;;;6.75;50.73
13581;BME280;6861;46.170;7.222;2022-12-07T13:09:03;95727.31;;;6.79;50.50
13581;BME280;6861;46.170;7.222;2022-12-07T13:11:33;95725.00;;;6.83;50.79
13581;BME280;6861;46.170;7.222;2022-12-07T13:14:37;95716.69;;;6.86;49.99
13581;BME280;6861;46.170;7.222;2022-12-07T13:17:08;95720.38;;;6.90;50.48
13581;BME280;6861;46.170;7.222;2022-12-07T13:19:58;95703.50;;;6.93;50.10
13581;BME280;6861;46.170;7.222;2022-12-07T13:22:47;95715.72;;;6.97;50.39
13581;BME280;6861;46.170;7.222;2022-12-07T13:25:21;95708.47;;;6.99;50.51
13581;BME280;6861;46.170;7.222;2022-12-07T13:27:54;95706.16;;;7.03;50.36
13581;BME280;6861;46.170;7.222;2022-12-07T13:30:22;95703.06;;;7.06;50.07
13581;BME280;6861;46.170;7.222;2022-12-07T13:32:53;95697.84;;;7.06;50.18
13581;BME280;6861;46.170;7.222;2022-12-07T13:35:33;95696.63;;;7.13;50.66
13581;BME280;6861;46.170;7.222;2022-12-07T13:38:13;95694.28;;;7.17;50.10
13581;BME280;6861;46.170;7.222;2022-12-07T13:40:41;95705.78;;;7.21;49.92
13581;BME280;6861;46.170;7.222;2022-12-07T13:43:14;95696.69;;;7.23;49.87
13581;BME280;6861;46.170;7.222;2022-12-07T13:45:42;95688.38;;;7.27;50.00
13581;BME280;6861;46.170;7.222;2022-12-07T13:48:21;95693.09;;;7.30;49.73
13581;BME280;6861;46.170;7.222;2022-12-07T13:50:57;95695.19;;;7.33;50.11
13581;BME280;6861;46.170;7.222;2022-12-07T13:53:24;95691.56;;;7.34;49.82
13581;BME280;6861;46.170;7.222;2022-12-07T13:55:53;95696.78;;;7.39;49.60